Time;durP1;ratioP1;P1;durP2;ratioP2;P2;SDS_P1;SDS_P2;PMS_P1;PMS_P2;Temp;Humidity;BMP_temperature;BMP_pressure;BME280_temperature;BME280_humidity;BME280_pressure;Samples;Min_cycle;Max_cycle;Signal;HPM_P1;HPM_P2
2023/02/13 00:00:21;;;;;;;;;42.00;34.00;22.50;29.90;;;;;;110469;1252;48909;-61
2023/02/13 00:03:07;;;;;;;;;38.67;33.00;22.40;30.00;;;;;;110446;1252;47462;-61
2023/02/13 00:05:34;;;;;;;;;43.25;35.25;22.30;30.00;;;;;;110458;1252;56147;-61
2023/02/13 00:08:01;;;;;;;;;35.50;31.00;22.20;30.10;;;;;;110460;1247;54292;-61
2023/02/13 00:10:28;;;;;;;;;39.50;33.00;22.10;30.20;;;;;;110526;1252;49878;-61
2023/02/13 00:12:55;;;;;;;;;46.00;35.67;22.00;30.30;;;;;;110554;1249;49394;-61
2023/02/13 00:15:22;;;;;;;;;41.00;34.00;21.90;30.40;;;;;;110515;1252;46268;-61
2023/02/13 00:17:48;;;;;;;;;38.00;31.00;21.80;30.50;;;;;;110510;1252;56334;-61
2023/02/13 00:20:16;;;;;;;;;40.00;32.00;21.80;30.70;;;;;;110445;1252;54432;-61
2023/02/13 00:22:43;;;;;;;;;39.25;32.75;21.70;30.60;;;;;;110494;1252;49166;-61
2023/02/13 00:25:10;;;;;;;;;39.00;33.00;21.70;30.70;;;;;;110452;1248;49828;-61
2023/02/13 00:27:37;;;;;;;;;37.00;33.00;21.70;30.90;;;;;;110412;1249;45956;-61
2023/02/13 00:30:05;;;;;;;;;40.00;34.00;21.60;30.80;;;;;;110491;1249;55904;-60
2023/02/13 00:32:32;;;;;;;;;40.00;35.00;21.60;30.80;;;;;;110528;1248;54905;-61
2023/02/13 00:34:59;;;;;;;;;37.50;33.00;21.50;31.40;;;;;;110523;1252;50393;-60
2023/02/13 00:37:26;;;;;;;;;42.00;34.50;21.50;30.90;;;;;;110535;1251;50279;-61
2023/02/13 00:39:52;;;;;;;;;38.33;33.33;21.40;30.90;;;;;;110495;1252;46766;-60
2023/02/13 00:42:22;;;;;;;;;45.00;35.00;21.30;31.00;;;;;;110470;1248;55652;-60
2023/02/13 00:44:50;;;;;;;;;38.67;32.67;21.20;31.30;;;;;;110469;1252;53462;-61
2023/02/13 00:47:17;;;;;;;;;43.00;36.00;21.10;31.10;;;;;;110454;1252;49522;-61
2023/02/13 00:49:44;;;;;;;;;40.50;33.00;21.10;31.40;;;;;;110419;1247;49600;-60
2023/02/13 00:52:11;;;;;;;;;36.00;32.00;21.10;31.30;;;;;;110418;1248;45736;-62
2023/02/13 00:54:38;;;;;;;;;43.00;35.50;21.10;31.80;;;;;;110438;1248;56332;-64
2023/02/13 00:57:05;;;;;;;;;38.67;32.00;21.10;31.40;;;;;;110430;1250;54643;-61
2023/02/13 00:59:32;;;;;;;;;36.00;32.00;21.30;31.40;;;;;;110466;1252;50484;-61
2023/02/13 01:01:59;;;;;;;;;36.67;32.00;21.40;31.30;;;;;;110430;1252;50092;-60
2023/02/13 01:04:26;;;;;;;;;37.33;32.00;21.60;31.40;;;;;;110531;1252;46104;-65
2023/02/13 01:06:53;;;;;;;;;36.00;31.00;21.70;30.90;;;;;;110496;1252;55900;-62
2023/02/13 01:09:20;;;;;;;;;44.50;36.00;21.80;31.30;;;;;;110493;1252;54794;-64
2023/02/13 01:11:47;;;;;;;;;37.25;30.50;21.90;31.20;;;;;;110495;1248;49394;-61
2023/02/13 01:14:13;;;;;;;;;36.33;32.33;22.00;30.70;;;;;;110473;1248;48970;-61
2023/02/13 01:16:40;;;;;;;;;37.00;32.00;22.20;31.30;;;;;;110523;1248;45518;-61
2023/02/13 01:19:07;;;;;;;;;38.33;32.33;22.30;31.20;;;;;;110538;1252;56803;-61
2023/02/13 01:21:34;;;;;;;;;34.33;31.00;22.40;31.20;;;;;;110563;1252;53961;-60
2023/02/13 01:24:05;;;;;;;;;40.00;34.00;22.50;31.30;;;;;;110535;1252;51291;-61
2023/02/13 01:26:32;;;;;;;;;32.50;30.00;22.60;31.30;;;;;;110442;1248;49653;-62
2023/02/13 01:28:59;;;;;;;;;40.50;32.00;22.80;31.60;;;;;;110491;1248;45896;-60
2023/02/13 01:31:26;;;;;;;;;34.00;31.00;22.90;31.30;;;;;;110447;1252;55098;-62
2023/02/13 01:33:56;;;;;;;;;36.75;32.00;23.00;31.60;;;;;;110479;1248;53901;-62
2023/02/13 01:36:24;;;;;;;;;38.00;32.00;23.10;31.30;;;;;;110482;1252;49647;-62
2023/02/13 01:38:53;;;;;;;;;33.00;29.00;23.20;31.50;;;;;;110522;1252;49049;-61
2023/02/13 01:41:21;;;;;;;;;34.67;31.67;23.30;31.20;;;;;;110519;1252;46718;-61
2023/02/13 01:43:56;;;;;;;;;33.00;30.00;23.30;31.10;;;;;;110450;1250;56472;-61
2023/02/13 01:46:31;;;;;;;;;38.00;33.00;23.40;31.10;;;;;;110533;1248;53339;-61
2023/02/13 01:49:06;;;;;;;;;34.00;31.00;23.50;31.10;;;;;;110479;1248;49606;-61
2023/02/13 01:51:34;;;;;;;;;36.00;32.67;23.50;31.00;;;;;;110425;1247;50149;-62
2023/02/13 01:54:14;;;;;;;;;31.67;28.00;23.60;31.10;;;;;;110547;1248;45337;-62
2023/02/13 01:56:47;;;;;;;;;31.67;29.33;23.60;31.00;;;;;;110583;1252;55943;-62
2023/02/13 01:59:22;;;;;;;;;40.00;33.00;23.60;31.00;;;;;;110547;1248;54338;-62
2023/02/13 02:01:49;;;;;;;;;41.67;35.33;23.60;30.90;;;;;;110445;1252;50046;-61
2023/02/13 02:04:18;;;;;;;;;36.00;32.00;23.70;31.00;;;;;;110489;1248;49001;-61
2023/02/13 02:06:52;;;;;;;;;34.00;31.00;23.60;31.10;;;;;;110468;1251;45745;-62
2023/02/13 02:09:22;;;;;;;;;35.00;30.00;23.60;30.90;;;;;;110505;1252;55914;-61
2023/02/13 02:11:57;;;;;;;;;34.50;29.50;23.60;30.80;;;;;;110485;1247;53424;-61
2023/02/13 02:14:25;;;;;;;;;32.33;30.33;23.60;30.80;;;;;;110299;1249;50186;-61
2023/02/13 02:16:52;;;;;;;;;38.50;33.00;23.60;30.80;;;;;;110509;1249;49690;-60
2023/02/13 02:19:36;;;;;;;;;33.00;29.00;23.60;30.30;;;;;;110513;1250;45707;-60
2023/02/13 02:22:18;;;;;;;;;29.75;28.25;23.60;30.80;;;;;;110442;1252;55961;-61
2023/02/13 02:25:03;;;;;;;;;32.00;29.50;23.50;30.80;;;;;;110372;1252;55010;-61
2023/02/13 02:27:39;;;;;;;;;32.00;26.00;23.50;30.70;;;;;;110532;1252;49543;-61
2023/02/13 02:30:43;;;;;;;;;30.00;28.00;23.40;30.70;;;;;;110525;1252;50109;-60
2023/02/13 02:33:35;;;;;;;;;29.00;28.00;23.40;30.70;;;;;;110526;1252;46049;-61
2023/02/13 02:36:20;;;;;;;;;34.00;30.00;23.30;30.70;;;;;;110392;1249;55821;-62
2023/02/13 02:39:05;;;;;;;;;28.50;26.00;23.30;30.90;;;;;;110435;1252;53719;-61
2023/02/13 02:41:57;;;;;;;;;30.67;27.00;23.20;30.70;;;;;;110538;1252;49963;-62
2023/02/13 02:44:41;;;;;;;;;35.00;30.00;23.20;30.50;;;;;;110507;1248;49852;-60
2023/02/13 02:50:19;;;;;;;;;26.00;24.67;23.10;30.20;;;;;;110349;1252;55332;-61
2023/02/13 02:52:54;;;;;;;;;34.33;28.00;23.00;30.10;;;;;;110461;1248;54806;-60
2023/02/13 02:55:49;;;;;;;;;30.50;27.50;23.00;30.10;;;;;;110489;1248;49122;-61
2023/02/13 03:07:03;;;;;;;;;27.00;24.00;22.70;30.00;;;;;;110401;1248;54561;-61
2023/02/13 03:15:16;;;;;;;;;30.75;29.25;22.60;30.00;;;;;;110456;1249;45591;-61
2023/02/13 03:24:27;;;;;;;;;27.00;25.00;22.40;29.90;;;;;;110354;1249;50384;-61
2023/02/13 03:26:57;;;;;;;;;33.50;30.00;22.30;29.90;;;;;;110228;1252;49521;-61
2023/02/13 03:30:08;;;;;;;;;29.00;26.33;22.30;30.10;;;;;;110421;1248;45442;-60
2023/02/13 03:33:18;;;;;;;;;32.50;30.00;22.20;30.00;;;;;;110290;1248;55439;-61
2023/02/13 03:39:47;;;;;;;;;29.50;27.50;22.00;29.90;;;;;;110470;1250;49172;-60
2023/02/13 03:42:40;;;;;;;;;29.00;28.00;22.00;30.00;;;;;;110388;1248;50824;-60
2023/02/13 03:51:24;;;;;;;;;32.00;27.00;21.80;30.10;;;;;;109301;1251;1216722;-60
2023/02/13 03:53:55;;;;;;;;;30.00;25.67;21.70;30.10;;;;;;110462;1248;50408;-61
2023/02/13 03:59:15;;;;;;;;;24.00;23.00;21.70;30.50;;;;;;110322;1252;45464;-60
2023/02/13 04:01:47;;;;;;;;;31.00;28.00;21.70;30.50;;;;;;110518;1252;55811;-61
2023/02/13 04:04:27;;;;;;;;;26.50;23.50;21.80;30.70;;;;;;110371;1251;54645;-59
2023/02/13 04:06:59;;;;;;;;;31.67;28.67;21.90;30.50;;;;;;110357;1252;49331;-60
2023/02/13 04:09:28;;;;;;;;;23.67;20.00;22.00;30.80;;;;;;110342;1248;49380;-60
2023/02/13 04:12:16;;;;;;;;;27.00;24.00;22.20;30.60;;;;;;110423;1252;45515;-60
2023/02/13 04:14:51;;;;;;;;;28.50;26.50;22.30;30.80;;;;;;110445;1249;56018;-59
2023/02/13 04:17:26;;;;;;;;;29.50;26.00;22.40;30.60;;;;;;110268;1249;53572;-60
2023/02/13 04:19:53;;;;;;;;;29.50;26.00;22.50;30.60;;;;;;110420;1252;50469;-60
2023/02/13 04:22:20;;;;;;;;;25.00;23.00;22.60;30.60;;;;;;110514;1248;49200;-61
2023/02/13 04:24:47;;;;;;;;;25.25;23.75;22.70;30.60;;;;;;110478;1248;45853;-61
2023/02/13 04:27:15;;;;;;;;;26.00;23.67;22.80;30.90;;;;;;110518;1252;56172;-64
2023/02/13 04:29:43;;;;;;;;;31.33;28.67;22.90;30.70;;;;;;110409;1247;54038;-63
2023/02/13 04:32:11;;;;;;;;;27.00;24.00;22.90;30.60;;;;;;110420;1248;49004;-61
2023/02/13 04:34:38;;;;;;;;;30.00;24.00;23.00;30.60;;;;;;110471;1249;50625;-61
2023/02/13 04:37:05;;;;;;;;;30.33;24.00;23.10;30.70;;;;;;110397;1249;46162;-62
2023/02/13 04:39:32;;;;;;;;;27.33;22.33;23.20;30.60;;;;;;110419;1248;55815;-62
2023/02/13 04:41:59;;;;;;;;;26.33;22.33;23.30;30.80;;;;;;110420;1248;54532;-60
2023/02/13 04:44:26;;;;;;;;;28.00;25.00;23.40;30.60;;;;;;110427;1249;48982;-61
2023/02/13 04:46:53;;;;;;;;;25.00;22.00;23.40;30.80;;;;;;110513;1252;50397;-60
2023/02/13 04:49:20;;;;;;;;;28.00;26.50;23.50;30.50;;;;;;110541;1252;46316;-61
2023/02/13 04:51:47;;;;;;;;;26.00;23.00;23.60;30.50;;;;;;110539;1248;55630;-60
2023/02/13 04:54:14;;;;;;;;;23.00;21.00;23.70;30.50;;;;;;110495;1252;54789;-60
2023/02/13 04:56:41;;;;;;;;;26.50;21.50;23.80;30.50;;;;;;110486;1247;49908;-61
2023/02/13 04:59:08;;;;;;;;;29.33;26.00;23.80;30.40;;;;;;110499;1252;50373;-61
2023/02/13 05:01:34;;;;;;;;;27.50;23.00;23.90;30.30;;;;;;110503;1250;46630;-61
2023/02/13 05:04:01;;;;;;;;;27.50;23.75;24.00;30.40;;;;;;110500;1248;55247;-60
2023/02/13 05:06:28;;;;;;;;;23.67;22.67;24.00;30.50;;;;;;110508;1252;54883;-61
2023/02/13 05:08:55;;;;;;;;;32.00;25.00;24.10;30.30;;;;;;110528;1252;49592;-61
2023/02/13 05:11:22;;;;;;;;;25.00;24.00;24.20;30.40;;;;;;110462;1248;49158;-61
2023/02/13 05:13:49;;;;;;;;;24.00;23.00;24.20;30.30;;;;;;110474;1249;45624;-61
2023/02/13 05:16:16;;;;;;;;;25.00;24.00;24.20;30.30;;;;;;110414;1248;55418;-61
2023/02/13 05:18:43;;;;;;;;;26.33;22.33;24.30;30.30;;;;;;110448;1252;54461;-62
2023/02/13 05:23:56;;;;;;;;;28.50;25.50;24.40;30.20;;;;;;110400;1248;49877;-61
2023/02/13 05:26:23;;;;;;;;;28.00;26.00;24.50;30.20;;;;;;110458;1248;46048;-61
2023/02/13 05:31:35;;;;;;;;;24.00;22.00;24.60;30.20;;;;;;110391;1252;54705;-61
2023/02/13 05:34:02;;;;;;;;;21.50;19.00;24.70;30.10;;;;;;110379;1247;49005;-61
2023/02/13 05:36:29;;;;;;;;;25.67;22.00;24.70;30.00;;;;;;110338;1252;49266;-59
2023/02/13 05:38:56;;;;;;;;;26.50;24.00;24.80;30.00;;;;;;110217;1254;45519;-61
2023/02/13 05:41:23;;;;;;;;;29.00;24.00;24.90;30.20;;;;;;110295;1249;55075;-61
2023/02/13 05:43:50;;;;;;;;;24.00;22.50;24.90;30.10;;;;;;110139;1249;53594;-61
2023/02/13 05:46:17;;;;;;;;;24.00;22.00;24.90;30.00;;;;;;110221;1251;48825;-61
2023/02/13 05:48:44;;;;;;;;;25.67;24.67;25.00;30.50;;;;;;110351;1254;49316;-61
2023/02/13 05:51:11;;;;;;;;;20.67;19.67;25.00;30.00;;;;;;110302;1254;46086;-61
2023/02/13 05:53:38;;;;;;;;;28.00;25.00;25.10;30.00;;;;;;110374;1251;55968;-61
2023/02/13 05:56:05;;;;;;;;;25.67;24.33;25.10;29.90;;;;;;110118;1249;54111;-61
2023/02/13 05:58:33;;;;;;;;;23.75;22.50;25.20;30.00;;;;;;110069;1254;49009;-61
2023/02/13 06:01:00;;;;;;;;;26.50;22.50;25.20;29.90;;;;;;110055;1254;48944;-62
2023/02/13 06:03:29;;;;;;;;;22.67;20.00;25.20;29.80;;;;;;110105;1249;45897;-61
2023/02/13 06:05:57;;;;;;;;;26.00;22.00;25.20;29.90;;;;;;110267;1254;55073;-62
2023/02/13 06:08:25;;;;;;;;;26.75;25.75;25.30;29.50;;;;;;110379;1249;54614;-62
2023/02/13 06:10:52;;;;;;;;;23.00;22.00;25.30;29.80;;;;;;110425;1254;50290;-64
2023/02/13 06:13:19;;;;;;;;;23.33;22.33;25.30;29.80;;;;;;110189;1254;49371;-60
2023/02/13 06:15:46;;;;;;;;;28.67;24.67;25.30;30.20;;;;;;110219;1251;45722;-66
2023/02/13 06:18:13;;;;;;;;;22.00;21.00;25.30;29.70;;;;;;110291;1254;55535;-62
2023/02/13 06:20:40;;;;;;;;;23.00;21.50;25.30;29.80;;;;;;110292;1249;54166;-62
2023/02/13 06:23:07;;;;;;;;;26.00;23.00;25.20;29.70;;;;;;110241;1249;49776;-62
2023/02/13 06:25:35;;;;;;;;;27.50;23.50;25.20;29.80;;;;;;110238;1254;50652;-63
2023/02/13 06:28:03;;;;;;;;;21.00;18.50;25.20;29.80;;;;;;110147;1255;46114;-63
2023/02/13 06:30:30;;;;;;;;;22.00;21.00;25.20;29.80;;;;;;110321;1249;55247;-61
2023/02/13 06:32:58;;;;;;;;;26.00;25.00;25.10;29.80;;;;;;110324;1251;54135;-61
2023/02/13 06:35:25;;;;;;;;;28.50;22.50;25.00;29.80;;;;;;110239;1249;49612;-60
2023/02/13 06:37:52;;;;;;;;;21.00;20.00;25.00;29.80;;;;;;110343;1249;50385;-62
2023/02/13 06:40:19;;;;;;;;;25.00;22.00;25.00;29.80;;;;;;110453;1252;46018;-61
2023/02/13 06:42:46;;;;;;;;;23.67;22.33;24.90;29.80;;;;;;110515;1248;55208;-62
2023/02/13 06:45:13;;;;;;;;;25.00;20.00;24.90;29.80;;;;;;110472;1252;53527;-62
2023/02/13 06:47:45;;;;;;;;;22.00;21.00;24.80;30.00;;;;;;110499;1252;49258;-62
2023/02/13 06:50:14;;;;;;;;;22.00;20.00;24.70;29.70;;;;;;110454;1251;49610;-62
2023/02/13 06:52:49;;;;;;;;;25.25;21.00;24.60;29.70;;;;;;110262;1249;45824;-62
2023/02/13 06:55:16;;;;;;;;;23.50;20.00;24.60;29.90;;;;;;110309;1250;55499;-61
2023/02/13 06:57:44;;;;;;;;;23.33;22.00;24.50;29.70;;;;;;110472;1248;53553;-62
2023/02/13 07:00:13;;;;;;;;;22.00;21.00;24.50;29.70;;;;;;110506;1252;50649;-62
2023/02/13 07:02:41;;;;;;;;;25.00;20.00;24.40;29.60;;;;;;110512;1252;49130;-61
2023/02/13 07:05:09;;;;;;;;;23.00;20.00;24.40;29.70;;;;;;110482;1252;46139;-61
2023/02/13 07:07:37;;;;;;;;;22.75;20.50;24.30;29.60;;;;;;110527;1248;55136;-61
2023/02/13 07:10:06;;;;;;;;;24.33;22.67;24.30;29.70;;;;;;110472;1252;53167;-62
2023/02/13 07:12:35;;;;;;;;;20.00;17.00;24.20;29.60;;;;;;110427;1249;49429;-62
2023/02/13 07:15:03;;;;;;;;;24.00;22.00;24.10;29.30;;;;;;110437;1249;50387;-62
2023/02/13 07:17:31;;;;;;;;;22.33;20.67;24.10;29.30;;;;;;110474;1249;45918;-61
2023/02/13 07:19:58;;;;;;;;;21.00;19.67;24.00;29.40;;;;;;110508;1252;56248;-62
2023/02/13 07:22:25;;;;;;;;;23.50;22.25;24.00;29.20;;;;;;110459;1249;54260;-61
2023/02/13 07:24:52;;;;;;;;;24.00;23.00;24.00;29.40;;;;;;110428;1247;49722;-61
2023/02/13 07:27:19;;;;;;;;;23.00;21.50;23.90;29.40;;;;;;110528;1248;49003;-61
2023/02/13 07:29:46;;;;;;;;;30.50;28.00;23.90;29.20;;;;;;110508;1248;45866;-61
2023/02/13 07:32:13;;;;;;;;;23.50;22.00;23.80;29.10;;;;;;110487;1252;56098;-62
2023/02/13 07:34:39;;;;;;;;;26.00;25.00;23.80;29.00;;;;;;110428;1252;54632;-61
2023/02/13 07:37:06;;;;;;;;;24.33;22.00;23.70;29.00;;;;;;110413;1248;49211;-70
2023/02/13 07:39:33;;;;;;;;;21.50;20.50;23.60;29.20;;;;;;110649;1252;49034;-61
2023/02/13 07:42:00;;;;;;;;;24.67;23.67;23.60;29.30;;;;;;110401;1252;45670;-61
2023/02/13 07:44:27;;;;;;;;;26.00;21.00;23.60;29.20;;;;;;110394;1248;56639;-60
2023/02/13 07:46:54;;;;;;;;;25.00;23.00;23.50;29.10;;;;;;110492;1247;54880;-60
2023/02/13 07:49:21;;;;;;;;;36.00;26.00;23.40;29.40;;;;;;110391;1248;49706;-59
2023/02/13 07:51:48;;;;;;;;;22.00;21.00;23.30;29.10;;;;;;110585;1247;50268;-63
2023/02/13 07:54:15;;;;;;;;;26.00;24.00;23.20;29.90;;;;;;110379;1252;45952;-60
2023/02/13 07:56:42;;;;;;;;;24.00;22.00;23.10;29.80;;;;;;110446;1248;55768;-66
2023/02/13 07:59:11;;;;;;;;;27.00;23.33;23.10;30.00;;;;;;110388;1249;53368;-66
2023/02/13 08:01:38;;;;;;;;;20.00;19.00;23.00;29.70;;;;;;110241;1248;49039;-70
2023/02/13 08:04:05;;;;;;;;;26.67;26.00;23.10;29.80;;;;;;110820;1252;49659;-72
2023/02/13 08:06:32;;;;;;;;;28.00;24.25;23.10;29.80;;;;;;110673;1247;46215;-70
2023/02/13 08:11:53;;;;;;;;;26.00;24.00;23.30;30.20;;;;;;110625;1252;53817;-66
2023/02/13 08:14:25;;;;;;;;;26.75;25.00;23.40;30.30;;;;;;110718;1252;50041;-67
2023/02/13 08:16:53;;;;;;;;;34.50;29.00;23.60;30.30;;;;;;110598;1248;50534;-70
2023/02/13 08:19:20;;;;;;;;;27.00;23.00;23.70;30.80;;;;;;110615;1252;45205;-64
2023/02/13 08:21:47;;;;;;;;;23.50;22.00;23.80;31.00;;;;;;110540;1248;55445;-66
2023/02/13 08:24:14;;;;;;;;;32.00;26.00;24.00;31.70;;;;;;110804;1248;54268;-65
2023/02/13 08:26:42;;;;;;;;;24.33;23.00;24.10;30.40;;;;;;110640;1248;49929;-68
2023/02/13 08:29:10;;;;;;;;;29.00;25.00;24.30;30.00;;;;;;110602;1252;49424;-66
2023/02/13 08:31:37;;;;;;;;;26.33;22.67;24.40;30.10;;;;;;110583;1248;46383;-62
2023/02/13 08:34:04;;;;;;;;;26.50;24.00;24.50;30.00;;;;;;110327;1252;55619;-65
2023/02/13 08:36:31;;;;;;;;;23.67;22.00;24.60;30.00;;;;;;110379;1248;54206;-66
2023/02/13 08:38:58;;;;;;;;;28.00;25.50;24.80;30.00;;;;;;110370;1249;49777;-64
2023/02/13 08:41:25;;;;;;;;;25.00;23.67;24.90;30.00;;;;;;110438;1252;49648;-65
2023/02/13 08:43:53;;;;;;;;;27.00;23.00;25.00;30.00;;;;;;110457;1252;45885;-64
2023/02/13 08:46:20;;;;;;;;;26.00;25.00;25.10;30.00;;;;;;110363;1252;55369;-71
2023/02/13 08:48:47;;;;;;;;;27.33;25.00;25.20;30.00;;;;;;110559;1248;54954;-67
2023/02/13 08:51:14;;;;;;;;;28.00;25.00;25.30;29.90;;;;;;110504;1248;50346;-64
2023/02/13 08:53:41;;;;;;;;;23.00;21.00;25.40;30.00;;;;;;110507;1248;50064;-71
2023/02/13 08:56:09;;;;;;;;;27.50;24.50;25.50;30.20;;;;;;110250;1248;45624;-65
2023/02/13 08:58:36;;;;;;;;;23.50;22.25;25.50;30.00;;;;;;110531;1252;55173;-66
2023/02/13 09:01:07;;;;;;;;;29.50;27.00;25.60;29.90;;;;;;110421;1252;53855;-68
2023/02/13 09:03:35;;;;;;;;;27.50;23.50;25.70;29.70;;;;;;110488;1252;49801;-68
2023/02/13 09:06:02;;;;;;;;;23.00;22.00;25.80;29.70;;;;;;110550;1250;49200;-67
2023/02/13 09:08:30;;;;;;;;;24.00;23.00;25.80;30.00;;;;;;110522;1248;46069;-71
2023/02/13 09:11:02;;;;;;;;;22.00;21.00;25.80;29.70;;;;;;110486;1248;56312;-67
2023/02/13 09:13:31;;;;;;;;;29.00;25.00;25.90;29.80;;;;;;110460;1248;53922;-64
2023/02/13 09:16:04;;;;;;;;;26.50;22.00;25.90;29.80;;;;;;110484;1248;50049;-65
2023/02/13 09:18:31;;;;;;;;;21.50;20.50;25.90;29.80;;;;;;110561;1248;49568;-64
2023/02/13 09:21:01;;;;;;;;;25.50;21.00;25.90;29.70;;;;;;110427;1248;45479;-67
2023/02/13 09:23:33;;;;;;;;;24.00;23.00;25.90;29.70;;;;;;110412;1250;55714;-66
2023/02/13 09:26:04;;;;;;;;;26.67;24.33;25.90;29.80;;;;;;110256;1252;53714;-68
2023/02/13 09:28:33;;;;;;;;;24.00;23.00;25.90;29.70;;;;;;110359;1247;49233;-67
2023/02/13 09:31:08;;;;;;;;;26.00;25.00;25.90;29.80;;;;;;110324;1252;49818;-66
2023/02/13 09:33:35;;;;;;;;;23.00;22.00;25.90;29.90;;;;;;110499;1252;46060;-68
2023/02/13 09:36:13;;;;;;;;;22.67;21.33;25.90;29.70;;;;;;110493;1248;56135;-64
2023/02/13 09:38:42;;;;;;;;;24.00;21.00;25.90;29.60;;;;;;110638;1248;53609;-69
2023/02/13 09:41:20;;;;;;;;;23.67;21.33;25.90;29.60;;;;;;110533;1252;49700;-72
2023/02/13 09:43:50;;;;;;;;;25.00;23.00;25.90;29.60;;;;;;110490;1249;49986;-72
2023/02/13 09:46:23;;;;;;;;;25.00;21.00;25.90;29.70;;;;;;110664;1248;46144;-64
2023/02/13 09:48:55;;;;;;;;;26.00;23.50;25.90;29.60;;;;;;110445;1247;55564;-62
2023/02/13 09:51:24;;;;;;;;;20.00;18.33;25.90;29.70;;;;;;110567;1252;53566;-62
2023/02/13 09:54:11;;;;;;;;;25.50;24.50;25.90;29.80;;;;;;110550;1252;49871;-62
2023/02/13 09:57:00;;;;;;;;;25.00;22.00;25.80;29.80;;;;;;110347;1247;49578;-63
2023/02/13 10:00:11;;;;;;;;;26.00;24.50;25.80;29.70;;;;;;110388;1252;45260;-63
2023/02/13 10:02:57;;;;;;;;;25.50;23.50;25.80;30.00;;;;;;110452;1247;55204;-62
2023/02/13 10:05:49;;;;;;;;;24.50;23.50;25.70;29.50;;;;;;110498;1252;54219;-66
2023/02/13 10:08:46;;;;;;;;;23.00;21.50;25.60;29.50;;;;;;110415;1248;50340;-60
2023/02/13 10:11:21;;;;;;;;;26.75;23.00;25.50;29.70;;;;;;110291;1252;49580;-62
2023/02/13 10:13:51;;;;;;;;;26.67;23.67;25.50;30.00;;;;;;110406;1248;45628;-59
2023/02/13 10:16:21;;;;;;;;;25.00;21.00;25.40;29.70;;;;;;110494;1248;56401;-65
2023/02/13 10:18:57;;;;;;;;;23.00;22.00;25.40;29.40;;;;;;110421;1248;53833;-64
2023/02/13 10:21:32;;;;;;;;;25.00;24.00;25.40;29.40;;;;;;110408;1252;49662;-61
2023/02/13 10:24:25;;;;;;;;;24.33;23.00;25.40;29.60;;;;;;110411;1252;49252;-61
2023/02/13 10:26:53;;;;;;;;;25.00;22.00;25.30;29.60;;;;;;110435;1248;45571;-60
2023/02/13 10:32:26;;;;;;;;;23.50;22.00;25.30;29.60;;;;;;110459;1248;54375;-60
2023/02/13 10:34:54;;;;;;;;;27.50;24.50;25.30;29.40;;;;;;110419;1248;49006;-63
2023/02/13 10:37:21;;;;;;;;;26.00;22.00;25.20;29.30;;;;;;110305;1249;49547;-63
2023/02/13 10:39:50;;;;;;;;;23.00;22.00;25.10;29.30;;;;;;110424;1248;45118;-61
2023/02/13 10:42:39;;;;;;;;;27.50;25.00;25.10;29.40;;;;;;110405;1248;55498;-61
2023/02/13 10:45:19;;;;;;;;;22.25;21.00;25.10;29.60;;;;;;110411;1249;54063;-61
2023/02/13 10:48:01;;;;;;;;;26.67;22.00;25.20;29.80;;;;;;110465;1248;49838;-58
2023/02/13 10:50:34;;;;;;;;;23.00;20.00;25.10;29.60;;;;;;110451;1250;50861;-59
2023/02/13 10:53:18;;;;;;;;;25.00;22.00;25.10;29.50;;;;;;110463;1248;46012;-59
2023/02/13 10:55:50;;;;;;;;;24.00;22.00;25.00;29.50;;;;;;110421;1248;55672;-59
2023/02/13 10:58:29;;;;;;;;;28.00;24.50;25.10;29.60;;;;;;110413;1248;54297;-59
2023/02/13 11:00:56;;;;;;;;;24.50;22.50;25.00;29.50;;;;;;110206;1252;49348;-60
2023/02/13 11:03:25;;;;;;;;;27.00;25.00;25.00;29.70;;;;;;110445;1252;49846;-60
2023/02/13 11:05:54;;;;;;;;;28.00;24.00;25.00;29.60;;;;;;110466;1248;46244;-60
2023/02/13 11:08:22;;;;;;;;;23.00;21.00;25.00;29.70;;;;;;110517;1252;55425;-60
2023/02/13 11:10:50;;;;;;;;;25.67;22.00;25.00;29.80;;;;;;110478;1248;54561;-60
2023/02/13 11:13:25;;;;;;;;;27.50;25.50;25.00;29.60;;;;;;110549;1247;49811;-63
2023/02/13 11:16:07;;;;;;;;;26.75;24.25;25.00;29.70;;;;;;110696;1247;49404;-61
2023/02/13 11:18:37;;;;;;;;;27.00;25.00;24.90;29.60;;;;;;110589;1247;45925;-61
2023/02/13 11:21:15;;;;;;;;;22.50;21.00;24.90;29.60;;;;;;110501;1247;56579;-61
2023/02/13 11:23:44;;;;;;;;;29.50;25.50;24.90;29.60;;;;;;110530;1252;53315;-58
2023/02/13 11:26:21;;;;;;;;;22.00;21.00;24.90;29.70;;;;;;110529;1248;49643;-59
2023/02/13 11:29:05;;;;;;;;;22.00;20.67;24.80;29.60;;;;;;110585;1247;49007;-58
2023/02/13 11:31:37;;;;;;;;;22.00;20.00;24.80;29.90;;;;;;110504;1247;46400;-59
2023/02/13 11:34:26;;;;;;;;;27.00;22.00;24.90;29.80;;;;;;110516;1247;55960;-59
2023/02/13 11:37:12;;;;;;;;;24.00;23.00;24.90;29.90;;;;;;110538;1248;53679;-60
2023/02/13 11:39:40;;;;;;;;;25.00;23.00;24.80;29.60;;;;;;110419;1247;49551;-59
2023/02/13 11:42:41;;;;;;;;;28.50;24.50;24.80;29.60;;;;;;110546;1248;48949;-60
2023/02/13 11:45:22;;;;;;;;;26.00;24.50;24.80;29.80;;;;;;110220;1253;45665;-61
2023/02/13 11:47:50;;;;;;;;;29.50;26.50;24.80;29.70;;;;;;110537;1252;56136;-60
2023/02/13 11:50:33;;;;;;;;;28.50;25.00;24.80;29.70;;;;;;110625;1248;54827;-58
2023/02/13 11:53:05;;;;;;;;;25.00;24.00;24.70;29.50;;;;;;110583;1252;49942;-59
2023/02/13 11:55:34;;;;;;;;;23.00;21.50;24.60;29.50;;;;;;110498;1252;49983;-61
2023/02/13 11:58:04;;;;;;;;;24.00;21.67;24.60;29.60;;;;;;110566;1252;45995;-62
2023/02/13 12:00:36;;;;;;;;;29.00;23.00;24.60;29.80;;;;;;110355;1252;55862;-61
2023/02/13 12:03:27;;;;;;;;;30.00;26.00;24.60;29.70;;;;;;110418;1252;54149;-62
2023/02/13 12:06:26;;;;;;;;;24.50;22.00;24.60;29.80;;;;;;110318;1248;51116;-63
2023/02/13 12:08:53;;;;;;;;;26.00;24.00;24.70;30.10;;;;;;109942;1252;49893;-61
2023/02/13 12:11:37;;;;;;;;;26.00;24.50;24.70;29.60;;;;;;110414;1249;45395;-61
2023/02/13 12:14:04;;;;;;;;;28.33;23.67;24.60;29.50;;;;;;110434;1252;55460;-61
2023/02/13 12:16:41;;;;;;;;;24.00;23.00;24.60;29.60;;;;;;110358;1253;54619;-60
2023/02/13 12:19:34;;;;;;;;;23.00;21.00;24.60;29.60;;;;;;110440;1249;49438;-58
2023/02/13 12:22:08;;;;;;;;;24.00;23.00;24.60;29.70;;;;;;110423;1248;49857;-59
2023/02/13 12:24:57;;;;;;;;;23.00;22.00;24.50;29.30;;;;;;110435;1247;46191;-60
2023/02/13 12:27:32;;;;;;;;;24.00;23.00;24.50;29.70;;;;;;110421;1252;56713;-61
2023/02/13 12:30:32;;;;;;;;;31.00;28.00;24.40;29.60;;;;;;110488;1252;54940;-60
2023/02/13 12:33:24;;;;;;;;;27.33;25.00;24.40;29.70;;;;;;110484;1252;50769;-60
2023/02/13 12:35:56;;;;;;;;;28.75;26.00;24.40;29.90;;;;;;110488;1248;49566;-60
2023/02/13 12:38:47;;;;;;;;;26.00;24.00;24.40;29.80;;;;;;110249;1249;46026;-60
2023/02/13 12:41:17;;;;;;;;;30.00;26.00;24.30;29.70;;;;;;110472;1248;55155;-60
2023/02/13 12:43:57;;;;;;;;;25.00;23.25;24.30;29.90;;;;;;110465;1248;53773;-60
2023/02/13 12:46:34;;;;;;;;;27.00;25.00;24.30;29.80;;;;;;110209;1252;48925;-59
2023/02/13 12:49:08;;;;;;;;;32.25;27.75;24.30;29.90;;;;;;110349;1248;49179;-59
2023/02/13 12:52:12;;;;;;;;;32.00;28.00;24.30;29.70;;;;;;110410;1248;46799;-60
2023/02/13 12:54:48;;;;;;;;;28.67;26.00;24.20;29.70;;;;;;110390;1252;55719;-60
2023/02/13 12:57:15;;;;;;;;;32.50;29.00;24.20;30.00;;;;;;110319;1248;53200;-57
2023/02/13 12:59:55;;;;;;;;;26.50;25.50;24.20;29.70;;;;;;110387;1252;49659;-60
2023/02/13 13:02:35;;;;;;;;;32.00;29.00;24.10;29.70;;;;;;110473;1252;49628;-58
2023/02/13 13:05:28;;;;;;;;;26.50;24.50;24.00;29.80;;;;;;110535;1248;45939;-61
2023/02/13 13:08:11;;;;;;;;;26.00;25.00;24.00;30.20;;;;;;110443;1252;55381;-60
2023/02/13 13:11:05;;;;;;;;;28.00;25.50;24.00;30.00;;;;;;110418;1252;54748;-61
2023/02/13 13:13:38;;;;;;;;;32.33;30.00;24.00;29.90;;;;;;110461;1248;50092;-57
2023/02/13 13:16:08;;;;;;;;;27.50;26.00;24.00;30.00;;;;;;110454;1248;50693;-59
2023/02/13 13:18:44;;;;;;;;;30.33;28.00;23.90;29.90;;;;;;110435;1248;46074;-59
2023/02/13 13:21:46;;;;;;;;;25.67;24.67;23.90;29.90;;;;;;110413;1247;56426;-59
2023/02/13 13:24:31;;;;;;;;;32.00;27.50;23.90;30.20;;;;;;110461;1252;53991;-60
2023/02/13 13:26:59;;;;;;;;;32.00;26.67;23.90;30.10;;;;;;110473;1247;49569;-62
2023/02/13 13:29:34;;;;;;;;;28.00;27.00;23.90;30.00;;;;;;110448;1252;48924;-62
2023/02/13 13:32:05;;;;;;;;;30.00;27.50;23.90;30.10;;;;;;110506;1252;45090;-61